This is the latest recevied weather packets stored in our database for station/object SV9TNF-2. If no packets are shown the sender has not sent any weather packets the latest 10 day(s).
| Time | Temp. | Humidity | Pressure | Rain* | Wind** | Luminosity | Snow |
|---|---|---|---|---|---|---|---|
| 1777799340 | 13.33° C | 68% | 1022.4 hPa | 0 mm | 4.02 m/s, 315° | - | - |
| 1777799040 | 11.67° C | 70% | 1022.4 hPa | 1.27 mm | 12.07 m/s, 248° | - | - |
| 1777798740 | 12.78° C | 71% | 1022 hPa | 2.54 mm | 12.96 m/s, 10° | - | - |
| 1777798439 | 13.33° C | 67% | 1022 hPa | 2.54 mm | 12.52 m/s, 218° | - | - |
| 1777798139 | 15° C | 57% | 1022 hPa | 0 mm | 10.73 m/s, 40° | - | - |
| 1777797839 | 15.56° C | 51% | 1022 hPa | 0 mm | 16.09 m/s, 50° | - | - |
| 1777797539 | 15.56° C | 58% | 1022 hPa | 0 mm | 24.59 m/s, 39° | - | - |
| 1777797239 | 15° C | 55% | 1022 hPa | 0 mm | 26.38 m/s, 29° | - | - |
| 1777796939 | 15° C | 56% | 1022 hPa | 0 mm | 14.31 m/s, 15° | - | - |
| 1777796639 | 14.44° C | 56% | 1022 hPa | 0 mm | 17.88 m/s, 237° | - | - |
| 1777796339 | 14.44° C | 57% | 1022 hPa | 0 mm | 9.83 m/s, 37° | - | - |
| 1777796039 | 15° C | 55% | 1022 hPa | 0 mm | 21.9 m/s, 328° | - | - |
| 1777795739 | 15.56° C | 51% | 1022 hPa | 0 mm | 24.59 m/s, 48° | - | - |
| 1777795439 | 15° C | 51% | 1022 hPa | 0 mm | 29.5 m/s, 6° | - | - |
| 1777795139 | 16.67° C | 53% | 1022 hPa | 0 mm | 4.92 m/s, 65° | - | - |
| 1777794839 | 15.56° C | 52% | 1022 hPa | 0 mm | 27.72 m/s, 29° | - | - |
| 1777794239 | 15° C | 57% | 1022 hPa | 0 mm | 16.09 m/s, 67° | - | - |
| 1777793938 | 14.44° C | 58% | 1022 hPa | 0 mm | 23.69 m/s, 357° | - | - |
| 1777793638 | 15.56° C | 53% | 1022 hPa | 0 mm | 16.99 m/s, 39° | - | - |
| 1777793338 | 15.56° C | 51% | 1022 hPa | 0 mm | 19.67 m/s, 30° | - | - |
| 1777793038 | 14.44° C | 53% | 1021.7 hPa | 0 mm | 24.59 m/s, 28° | - | - |
| 1777792738 | 14.44° C | 55% | 1021.7 hPa | 0 mm | 27.72 m/s, 23° | - | - |
| 1777792438 | 14.44° C | 56% | 1021.7 hPa | 0 mm | 25.48 m/s, 7° | - | - |
| 1777792138 | 15° C | 59% | 1021.7 hPa | 0 mm | 22.35 m/s, 348° | - | - |
| 1777791837 | 15° C | 56% | 1021.7 hPa | 0 mm | 23.69 m/s, 342° | - | - |
* Rain latest hour (hover to see other rain measurements)
** Current wind speed in m/s (hover to see current wind gust speed)